createdAt,value
2018-02-10T00:00:40.404Z,26.15
2018-02-10T00:03:08.688Z,23.43
2018-02-10T00:05:36.976Z,21.88
2018-02-10T00:08:05.290Z,21.95
2018-02-10T00:10:33.579Z,18.85
2018-02-10T00:13:01.892Z,22.30
2018-02-10T00:15:30.194Z,23.88
2018-02-10T00:17:58.504Z,22.83
2018-02-10T00:20:26.792Z,20.28
2018-02-10T00:22:55.100Z,27.77
2018-02-10T00:25:23.392Z,23.83
2018-02-10T00:27:51.705Z,21.43
2018-02-10T00:30:19.997Z,24.63
2018-02-10T00:32:48.309Z,23.05
2018-02-10T00:35:16.600Z,20.72
2018-02-10T00:37:44.908Z,24.08
2018-02-10T00:40:13.192Z,21.47
2018-02-10T00:42:41.506Z,22.92
2018-02-10T00:45:09.792Z,21.02
2018-02-10T00:47:38.171Z,19.62
2018-02-10T00:50:06.456Z,17.62
2018-02-10T00:52:33.992Z,21.53
2018-02-10T00:55:02.284Z,22.35
2018-02-10T00:57:30.589Z,21.95
2018-02-10T00:59:58.873Z,25.15
2018-02-10T01:02:27.181Z,23.53
2018-02-10T01:04:55.468Z,24.70
2018-02-10T01:07:23.772Z,24.12
2018-02-10T01:09:52.059Z,22.22
2018-02-10T01:12:20.372Z,24.40
2018-02-10T01:14:48.661Z,28.62
2018-02-10T01:17:16.970Z,25.38
2018-02-10T01:19:45.256Z,25.87
2018-02-10T01:22:13.562Z,29.77
2018-02-10T01:24:41.851Z,29.85
2018-02-10T01:27:10.160Z,26.37
2018-02-10T01:29:38.449Z,31.95
2018-02-10T01:32:06.756Z,28.65
2018-02-10T01:34:35.041Z,27.20
2018-02-10T01:37:03.357Z,23.07
2018-02-10T01:39:31.644Z,27.00
2018-02-10T01:41:59.971Z,24.87
2018-02-10T01:44:28.264Z,26.88
2018-02-10T01:46:56.555Z,26.90
2018-02-10T01:49:24.864Z,30.63
2018-02-10T01:51:53.156Z,30.12
2018-02-10T01:54:21.480Z,27.15
2018-02-10T01:56:49.772Z,28.57
2018-02-10T01:59:18.084Z,33.78
2018-02-10T02:01:46.376Z,28.22
2018-02-10T02:04:14.688Z,27.98
2018-02-10T02:06:42.976Z,26.20
2018-02-10T02:09:11.291Z,28.33
2018-02-10T02:11:39.580Z,26.83
2018-02-10T02:14:07.888Z,26.03
2018-02-10T02:16:36.180Z,28.65
2018-02-10T02:19:04.496Z,29.40
2018-02-10T02:21:32.780Z,40.92
2018-02-10T02:24:01.091Z,26.22
2018-02-10T02:26:29.380Z,27.97
2018-02-10T02:28:57.697Z,31.40
2018-02-10T02:31:25.985Z,31.73
2018-02-10T02:33:54.296Z,25.12
2018-02-10T02:36:22.593Z,25.08
2018-02-10T02:38:50.911Z,27.63
2018-02-10T02:41:19.201Z,30.87
2018-02-10T02:43:47.513Z,25.65
2018-02-10T02:46:15.802Z,32.32
2018-02-10T02:48:44.123Z,27.20
2018-02-10T02:51:12.416Z,25.85
2018-02-10T02:53:40.727Z,34.23
2018-02-10T02:56:09.020Z,34.50
2018-02-10T02:58:37.324Z,27.68
2018-02-10T03:01:05.607Z,31.62
2018-02-10T03:03:33.916Z,30.00
2018-02-10T03:06:02.199Z,28.72
2018-02-10T03:08:30.508Z,31.60
2018-02-10T03:10:58.796Z,26.97
2018-02-10T03:13:27.103Z,30.22
2018-02-10T03:15:55.400Z,32.12
2018-02-10T03:18:23.716Z,27.30
2018-02-10T03:20:51.999Z,34.48
2018-02-10T03:23:20.308Z,30.32
2018-02-10T03:25:48.596Z,33.78
2018-02-10T03:28:16.939Z,31.12
2018-02-10T03:30:45.227Z,31.15
2018-02-10T03:33:13.508Z,29.77
2018-02-10T03:35:41.834Z,33.10
2018-02-10T03:38:10.119Z,31.83
2018-02-10T03:40:38.433Z,33.42
2018-02-10T03:43:06.723Z,33.07
2018-02-10T03:45:35.034Z,29.70
2018-02-10T03:48:03.328Z,35.72
2018-02-10T03:50:31.639Z,28.55
2018-02-10T03:52:59.926Z,35.05
2018-02-10T03:55:28.237Z,34.10
2018-02-10T03:57:55.759Z,31.60
2018-02-10T04:00:24.076Z,31.88
2018-02-10T04:02:52.365Z,28.60
2018-02-10T04:05:20.676Z,35.27
2018-02-10T04:07:48.963Z,28.70
2018-02-10T04:10:17.280Z,35.80
2018-02-10T04:12:45.568Z,28.90
2018-02-10T04:15:13.881Z,30.03
2018-02-10T04:17:42.169Z,31.97
2018-02-10T04:20:10.479Z,31.50
2018-02-10T04:22:38.776Z,33.68
2018-02-10T04:25:07.084Z,31.28
2018-02-10T04:27:35.373Z,36.18
2018-02-10T04:30:03.685Z,28.93
2018-02-10T04:32:31.971Z,37.17
2018-02-10T04:35:00.283Z,34.75
2018-02-10T04:37:28.571Z,32.30
2018-02-10T04:39:56.880Z,29.58
2018-02-10T04:42:25.175Z,32.20
2018-02-10T04:44:53.480Z,34.97
2018-02-10T04:47:21.764Z,31.62
2018-02-10T04:49:50.076Z,31.32
2018-02-10T04:52:18.364Z,33.55
2018-02-10T04:54:46.667Z,31.25
2018-02-10T04:57:14.952Z,22.38
2018-02-10T04:59:43.259Z,26.00
2018-02-10T05:02:11.540Z,23.90
2018-02-10T05:04:39.850Z,23.10
2018-02-10T05:07:08.140Z,20.57
2018-02-10T05:09:36.475Z,30.27
2018-02-10T05:12:04.759Z,26.55
2018-02-10T05:14:33.047Z,22.82
2018-02-10T05:17:01.362Z,24.52
2018-02-10T05:19:29.649Z,22.53
2018-02-10T05:21:57.964Z,29.60
2018-02-10T05:24:26.251Z,28.78
2018-02-10T05:26:54.552Z,28.00
2018-02-10T05:29:22.839Z,27.28
2018-02-10T05:31:51.152Z,26.72
2018-02-10T05:34:19.443Z,24.62
2018-02-10T05:36:47.751Z,26.85
2018-02-10T05:39:16.040Z,22.97
2018-02-10T05:41:44.347Z,26.80
2018-02-10T05:44:12.663Z,28.52
2018-02-10T05:46:40.972Z,28.85
2018-02-10T05:49:09.261Z,28.12
2018-02-10T05:51:37.576Z,21.97
2018-02-10T05:54:05.868Z,32.72
2018-02-10T05:56:34.177Z,21.08
2018-02-10T05:59:02.468Z,28.40
2018-02-10T06:01:30.772Z,27.77
2018-02-10T06:03:59.060Z,26.48
2018-02-10T06:06:27.368Z,24.97
2018-02-10T06:08:55.656Z,26.47
2018-02-10T06:11:23.964Z,27.00
2018-02-10T06:13:52.252Z,23.50
2018-02-10T06:16:20.568Z,26.68
2018-02-10T06:18:48.854Z,25.20
2018-02-10T06:21:17.164Z,24.30
2018-02-10T06:23:45.456Z,19.87
2018-02-10T06:26:13.767Z,27.10
2018-02-10T06:28:42.056Z,22.98
2018-02-10T06:31:10.368Z,23.32
2018-02-10T06:33:38.659Z,25.17
2018-02-10T06:36:06.972Z,22.18
2018-02-10T06:38:35.262Z,21.67
2018-02-10T06:41:03.567Z,23.00
2018-02-10T06:43:31.856Z,22.38
2018-02-10T06:46:00.168Z,21.90
2018-02-10T06:48:28.461Z,22.87
2018-02-10T06:50:56.772Z,16.17
2018-02-10T06:53:25.061Z,20.78
2018-02-10T06:55:53.357Z,30.50
2018-02-10T06:58:21.668Z,25.48
2018-02-10T07:00:49.955Z,23.15
2018-02-10T07:03:18.282Z,20.80
2018-02-10T07:05:50.660Z,22.05
2018-02-10T07:08:18.972Z,23.70
2018-02-10T07:10:47.281Z,18.53
2018-02-10T07:13:15.631Z,21.33
2018-02-10T07:15:43.923Z,20.88
2018-02-10T07:18:12.232Z,19.38
2018-02-10T07:20:40.520Z,19.70
2018-02-10T07:23:08.838Z,16.78
2018-02-10T07:25:37.128Z,18.32
2018-02-10T07:28:05.427Z,16.20
2018-02-10T07:30:33.714Z,19.32
2018-02-10T07:33:02.020Z,16.30
2018-02-10T07:35:30.308Z,18.42
2018-02-10T07:37:58.612Z,13.70
2018-02-10T07:40:26.905Z,14.82
2018-02-10T07:42:55.220Z,17.93
2018-02-10T07:45:23.499Z,17.43
2018-02-10T07:47:51.809Z,16.68
2018-02-10T07:50:20.096Z,15.73
2018-02-10T07:52:48.395Z,13.73
2018-02-10T07:55:16.684Z,14.05
2018-02-10T07:57:44.993Z,15.02
2018-02-10T08:00:13.271Z,12.68
2018-02-10T08:02:41.576Z,15.90
2018-02-10T08:05:09.861Z,12.73
2018-02-10T08:07:38.169Z,27.98
2018-02-10T08:10:06.455Z,18.40
2018-02-10T08:12:34.764Z,43.03
2018-02-10T08:15:03.050Z,63.83
2018-02-10T08:17:31.364Z,25.23
2018-02-10T08:19:59.655Z,19.95
2018-02-10T08:22:27.968Z,21.25
2018-02-10T08:24:56.256Z,16.67
2018-02-10T08:27:24.568Z,16.07
2018-02-10T08:29:52.856Z,13.02
2018-02-10T08:32:21.164Z,14.52
2018-02-10T08:34:49.452Z,17.02
2018-02-10T08:37:17.760Z,20.68
2018-02-10T08:39:46.043Z,18.37
2018-02-10T08:42:14.332Z,17.58
2018-02-10T08:44:42.640Z,34.67
2018-02-10T08:47:10.924Z,34.40
2018-02-10T08:49:39.235Z,24.22
2018-02-10T08:52:07.523Z,51.35
2018-02-10T08:54:35.840Z,40.02
2018-02-10T08:57:04.128Z,28.55
2018-02-10T08:59:32.439Z,26.07
2018-02-10T09:02:00.732Z,11.85
2018-02-10T09:04:29.039Z,52.72
2018-02-10T09:06:57.323Z,18.18
2018-02-10T09:09:25.627Z,11.42
2018-02-10T09:11:53.907Z,11.25
2018-02-10T09:14:22.209Z,14.12
2018-02-10T09:16:50.495Z,11.08
2018-02-10T09:19:18.799Z,12.17
2018-02-10T09:21:47.089Z,15.80
2018-02-10T09:24:15.395Z,13.17
2018-02-10T09:26:43.680Z,11.92
2018-02-10T09:29:12.965Z,9.05
2018-02-10T09:31:41.248Z,11.07
2018-02-10T09:34:09.555Z,9.55
2018-02-10T09:36:37.844Z,10.92
2018-02-10T09:39:06.148Z,10.97
2018-02-10T09:41:34.437Z,14.00
2018-02-10T09:44:02.749Z,11.38
2018-02-10T09:46:31.027Z,11.02
2018-02-10T09:48:59.328Z,14.17
2018-02-10T09:51:27.615Z,11.65
2018-02-10T09:53:55.919Z,9.75
2018-02-10T09:56:24.212Z,10.38
2018-02-10T09:58:52.519Z,7.97
2018-02-10T10:01:20.803Z,11.47
2018-02-10T10:03:49.104Z,9.77
2018-02-10T10:06:17.383Z,9.87
2018-02-10T10:08:45.693Z,33.63
2018-02-10T10:11:13.980Z,43.80
2018-02-10T10:13:42.288Z,19.80
2018-02-10T10:16:10.579Z,12.88
2018-02-10T10:18:38.891Z,14.22
2018-02-10T10:21:07.178Z,7.73
2018-02-10T10:23:35.481Z,10.55
2018-02-10T10:26:03.792Z,12.92
2018-02-10T10:28:32.080Z,37.60
2018-02-10T10:31:00.400Z,20.28
2018-02-10T10:33:28.688Z,16.75
2018-02-10T10:35:57.001Z,10.08
2018-02-10T10:38:26.161Z,10.08
2018-02-10T10:40:54.467Z,12.12
2018-02-10T10:43:22.753Z,13.08
2018-02-10T10:45:51.060Z,11.45
2018-02-10T10:48:18.580Z,12.85
2018-02-10T10:50:47.823Z,12.93
2018-02-10T10:53:16.112Z,13.53
2018-02-10T10:55:44.415Z,12.73
2018-02-10T10:58:12.696Z,10.37
2018-02-10T11:00:41.004Z,22.27
2018-02-10T11:03:09.288Z,12.78
2018-02-10T11:05:37.603Z,23.30
2018-02-10T11:08:05.895Z,14.37
2018-02-10T11:10:34.267Z,12.02
2018-02-10T11:13:02.510Z,12.77
2018-02-10T11:15:30.824Z,12.63
2018-02-10T11:17:59.107Z,10.82
2018-02-10T11:20:27.415Z,12.70
2018-02-10T11:22:55.704Z,13.20
2018-02-10T11:25:24.009Z,9.52
2018-02-10T11:27:52.304Z,12.43
2018-02-10T11:30:20.615Z,10.20
2018-02-10T11:32:48.903Z,10.25
2018-02-10T11:35:17.208Z,9.33
2018-02-10T11:37:45.496Z,11.95
2018-02-10T11:40:13.804Z,9.37
2018-02-10T11:42:42.381Z,11.43
2018-02-10T11:45:10.679Z,8.90
2018-02-10T11:47:38.960Z,6.72
2018-02-10T11:50:07.267Z,6.80
2018-02-10T11:52:36.704Z,9.13
2018-02-10T11:55:03.887Z,7.35
2018-02-10T11:57:32.167Z,7.25
2018-02-10T12:00:00.477Z,8.12
2018-02-10T12:02:28.776Z,5.63
2018-02-10T12:04:57.128Z,7.32
2018-02-10T12:07:25.415Z,7.00
2018-02-10T12:09:53.695Z,8.40
2018-02-10T12:12:21.999Z,5.10
2018-02-10T12:14:50.283Z,5.77
2018-02-10T12:17:18.592Z,6.00
2018-02-10T12:19:46.872Z,6.75
2018-02-10T12:22:15.187Z,5.65
2018-02-10T12:24:43.476Z,7.30
2018-02-10T12:27:11.784Z,5.28
2018-02-10T12:29:40.067Z,5.83
2018-02-10T12:32:08.383Z,5.33
2018-02-10T12:34:36.671Z,4.18
2018-02-10T12:37:04.976Z,5.07
2018-02-10T12:39:33.267Z,5.15
2018-02-10T12:42:01.580Z,5.65
2018-02-10T12:44:29.872Z,4.28
2018-02-10T12:46:58.176Z,6.13
2018-02-10T12:49:30.323Z,4.70
2018-02-10T12:51:58.635Z,6.63
2018-02-10T12:54:26.916Z,4.28
2018-02-10T12:56:55.216Z,4.75
2018-02-10T12:59:23.503Z,4.28
2018-02-10T13:01:51.803Z,4.98
2018-02-10T13:04:20.085Z,4.32
2018-02-10T13:06:48.387Z,4.65
2018-02-10T13:09:16.670Z,4.83
2018-02-10T13:11:44.979Z,4.30
2018-02-10T13:14:13.259Z,4.47
2018-02-10T13:16:41.567Z,5.75
2018-02-10T13:19:09.855Z,4.98
2018-02-10T13:21:38.156Z,5.10
2018-02-10T13:24:06.444Z,9.82
2018-02-10T13:26:34.756Z,5.58
2018-02-10T13:29:03.057Z,5.60
2018-02-10T13:31:31.361Z,3.78
2018-02-10T13:33:59.649Z,4.37
2018-02-10T13:36:27.952Z,3.95
2018-02-10T13:38:56.235Z,4.63
2018-02-10T13:41:23.781Z,4.67
2018-02-10T13:43:52.064Z,5.52
2018-02-10T13:46:20.372Z,4.15
2018-02-10T13:48:48.657Z,7.05
2018-02-10T13:51:17.002Z,5.47
2018-02-10T13:53:44.519Z,4.37
2018-02-10T13:56:12.076Z,3.72
2018-02-10T13:58:40.379Z,74.70
2018-02-10T14:01:08.660Z,9.23
2018-02-10T14:03:36.959Z,6.10
2018-02-10T14:06:05.256Z,37.23
2018-02-10T14:08:33.568Z,8.62
2018-02-10T14:11:01.086Z,5.22
2018-02-10T14:13:29.400Z,4.82
2018-02-10T14:15:57.688Z,9.77
2018-02-10T14:18:25.987Z,5.67
2018-02-10T14:20:54.280Z,7.22
2018-02-10T14:23:22.596Z,6.52
2018-02-10T14:25:50.889Z,9.28
2018-02-10T14:28:19.204Z,13.82
2018-02-10T14:30:47.479Z,7.53
2018-02-10T14:33:15.784Z,12.52
2018-02-10T14:35:44.076Z,25.30
2018-02-10T14:38:12.384Z,11.38
2018-02-10T14:40:40.672Z,15.62
2018-02-10T14:43:08.975Z,10.77
2018-02-10T14:45:37.260Z,13.27
2018-02-10T14:48:05.563Z,12.22
2018-02-10T14:50:33.844Z,12.87
2018-02-10T14:53:02.168Z,16.75
2018-02-10T14:55:30.456Z,15.77
2018-02-10T14:57:58.781Z,17.62
2018-02-10T15:00:27.069Z,13.18
2018-02-10T15:02:55.372Z,15.57
2018-02-10T15:05:23.652Z,16.28
2018-02-10T15:07:51.961Z,19.63
2018-02-10T15:10:20.252Z,14.93
2018-02-10T15:12:48.559Z,18.28
2018-02-10T15:15:16.087Z,11.72
2018-02-10T15:17:44.400Z,23.57
2018-02-10T15:20:12.680Z,14.22
2018-02-10T15:22:40.988Z,12.68
2018-02-10T15:25:08.515Z,16.90
2018-02-10T15:27:36.827Z,16.87
2018-02-10T15:30:16.956Z,13.22
2018-02-10T15:32:57.067Z,16.30
2018-02-10T15:35:25.353Z,14.40
2018-02-10T15:37:53.664Z,14.12
2018-02-10T15:40:21.956Z,9.93
2018-02-10T15:42:50.265Z,10.67
2018-02-10T15:45:18.559Z,12.35
2018-02-10T15:47:46.864Z,11.10
2018-02-10T15:50:15.144Z,11.18
2018-02-10T15:52:43.432Z,10.83
2018-02-10T15:55:11.743Z,10.67
2018-02-10T15:57:40.028Z,8.20
2018-02-10T16:00:08.340Z,10.40
2018-02-10T16:02:35.860Z,13.45
2018-02-10T16:05:04.177Z,11.53
2018-02-10T16:07:32.468Z,9.90
2018-02-10T16:10:00.776Z,9.88
2018-02-10T16:12:29.068Z,10.00
2018-02-10T16:14:57.367Z,9.63
2018-02-10T16:17:25.704Z,9.72
2018-02-10T16:19:53.983Z,12.05
2018-02-10T16:22:22.260Z,8.83
2018-02-10T16:24:50.571Z,12.20
2018-02-10T16:27:18.847Z,9.72
2018-02-10T16:29:47.163Z,8.48
2018-02-10T16:32:15.448Z,11.15
2018-02-10T16:34:43.760Z,8.97
2018-02-10T16:37:12.091Z,12.58
2018-02-10T16:39:40.398Z,7.35
2018-02-10T16:42:08.691Z,10.57
2018-02-10T16:44:36.996Z,10.33
2018-02-10T16:47:05.280Z,8.82
2018-02-10T16:49:33.588Z,12.98
2018-02-10T16:52:01.871Z,8.80
2018-02-10T16:54:30.176Z,8.45
2018-02-10T16:56:58.455Z,9.37
2018-02-10T16:59:26.759Z,8.87
2018-02-10T17:01:55.041Z,9.40
2018-02-10T17:04:23.352Z,8.30
2018-02-10T17:06:50.871Z,11.83
2018-02-10T17:09:19.167Z,8.57
2018-02-10T17:11:47.443Z,13.17
2018-02-10T17:14:15.770Z,9.27
2018-02-10T17:16:44.060Z,9.08
2018-02-10T17:19:12.357Z,8.87
2018-02-10T17:21:40.644Z,10.03
2018-02-10T17:24:08.956Z,17.32
2018-02-10T17:26:37.244Z,10.78
2018-02-10T17:29:05.524Z,7.10
2018-02-10T17:31:33.832Z,9.75
2018-02-10T17:34:02.122Z,12.08
2018-02-10T17:36:30.428Z,8.67
2018-02-10T17:38:58.708Z,8.82
2018-02-10T17:41:27.008Z,9.33
2018-02-10T17:43:55.293Z,12.05
2018-02-10T17:46:23.596Z,8.03
2018-02-10T17:48:51.885Z,11.37
2018-02-10T17:51:20.196Z,12.37
2018-02-10T17:53:48.480Z,8.73
2018-02-10T17:56:16.776Z,6.45
2018-02-10T17:58:45.100Z,13.13
2018-02-10T18:01:13.428Z,9.82
2018-02-10T18:03:41.716Z,9.17
2018-02-10T18:06:10.060Z,11.02
2018-02-10T18:08:38.400Z,15.22
2018-02-10T18:11:06.740Z,12.12
2018-02-10T18:13:35.032Z,9.05
2018-02-10T18:16:03.355Z,11.27
2018-02-10T18:18:31.644Z,13.08
2018-02-10T18:20:59.244Z,9.48
2018-02-10T18:23:27.571Z,14.12
2018-02-10T18:25:55.911Z,14.62
2018-02-10T18:28:24.219Z,9.77
2018-02-10T18:30:52.538Z,12.42
2018-02-10T18:33:20.824Z,11.12
2018-02-10T18:35:49.120Z,13.22
2018-02-10T18:38:17.419Z,13.30
2018-02-10T18:40:45.736Z,8.93
2018-02-10T18:43:14.024Z,13.87
2018-02-10T18:45:42.340Z,11.63
2018-02-10T18:48:10.648Z,12.18
2018-02-10T18:50:38.946Z,11.32
2018-02-10T18:53:07.227Z,9.17
2018-02-10T18:55:35.532Z,10.77
2018-02-10T18:58:03.819Z,14.00
2018-02-10T19:00:32.122Z,11.60
2018-02-10T19:03:00.404Z,15.00
2018-02-10T19:05:28.790Z,12.47
2018-02-10T19:07:57.080Z,15.02
2018-02-10T19:10:25.371Z,11.32
2018-02-10T19:12:53.681Z,11.00
2018-02-10T19:15:21.960Z,12.17
2018-02-10T19:17:50.276Z,22.18
2018-02-10T19:20:18.551Z,7.82
2018-02-10T19:22:46.847Z,9.58
2018-02-10T19:25:15.132Z,12.22
2018-02-10T19:27:43.453Z,8.88
2018-02-10T19:30:11.732Z,9.58
2018-02-10T19:32:40.074Z,10.10
2018-02-10T19:35:08.355Z,14.67
2018-02-10T19:37:36.655Z,17.30
2018-02-10T19:40:04.948Z,13.63
2018-02-10T19:42:33.264Z,15.75
2018-02-10T19:45:01.575Z,11.80
2018-02-10T19:47:29.896Z,12.27
2018-02-10T19:49:58.185Z,21.67
2018-02-10T19:52:26.516Z,24.62
2018-02-10T19:54:54.799Z,11.32
2018-02-10T19:57:23.096Z,12.87
2018-02-10T19:59:51.372Z,12.10
2018-02-10T20:02:19.684Z,18.62
2018-02-10T20:04:47.977Z,11.90
2018-02-10T20:07:16.323Z,13.00
2018-02-10T20:09:44.612Z,17.30
2018-02-10T20:12:12.937Z,12.97
2018-02-10T20:14:41.216Z,12.62
2018-02-10T20:17:09.517Z,12.08
2018-02-10T20:19:37.805Z,12.60
2018-02-10T20:22:06.113Z,14.25
2018-02-10T20:24:34.404Z,14.02
2018-02-10T20:27:02.708Z,15.50
2018-02-10T20:29:30.996Z,10.30
2018-02-10T20:31:59.308Z,16.58
2018-02-10T20:34:26.835Z,14.58
2018-02-10T20:36:55.139Z,11.72
2018-02-10T20:39:23.443Z,14.12
2018-02-10T20:41:51.777Z,12.70
2018-02-10T20:44:20.064Z,10.93
2018-02-10T20:46:48.352Z,33.75
2018-02-10T20:49:16.673Z,14.02
2018-02-10T20:51:44.959Z,16.18
2018-02-10T20:54:13.264Z,14.10
2018-02-10T20:56:41.555Z,12.80
2018-02-10T20:59:09.864Z,13.58
2018-02-10T21:01:37.388Z,13.27
2018-02-10T21:04:05.697Z,19.13
2018-02-10T21:06:33.217Z,11.72
2018-02-10T21:09:01.537Z,29.48
2018-02-10T21:11:29.839Z,14.45
2018-02-10T21:13:58.141Z,16.42
2018-02-10T21:16:26.427Z,13.47
2018-02-10T21:18:54.747Z,39.10
2018-02-10T21:21:22.285Z,16.87
2018-02-10T21:23:50.590Z,27.20
2018-02-10T21:26:18.872Z,19.62
2018-02-10T21:28:47.177Z,11.80
2018-02-10T21:31:15.464Z,18.45
2018-02-10T21:33:43.768Z,13.43
2018-02-10T21:36:12.056Z,14.32
2018-02-10T21:38:40.364Z,21.32
2018-02-10T21:41:08.652Z,11.42
2018-02-10T21:43:36.951Z,19.83
2018-02-10T21:46:05.240Z,13.88
2018-02-10T21:48:33.545Z,14.03
2018-02-10T21:51:01.833Z,18.15
2018-02-10T21:53:30.144Z,11.53
2018-02-10T21:55:59.392Z,13.32
2018-02-10T21:58:27.700Z,11.77
2018-02-10T22:00:55.983Z,22.87
2018-02-10T22:03:24.284Z,13.03
2018-02-10T22:05:52.567Z,10.88
2018-02-10T22:08:20.872Z,8.77
2018-02-10T22:10:49.151Z,15.57
2018-02-10T22:13:17.456Z,19.57
2018-02-10T22:15:45.745Z,18.60
2018-02-10T22:18:14.060Z,21.72
2018-02-10T22:20:42.349Z,15.07
2018-02-10T22:23:10.637Z,18.87
2018-02-10T22:25:38.943Z,25.47
2018-02-10T22:28:07.228Z,19.30
2018-02-10T22:30:35.535Z,25.08
2018-02-10T22:33:03.819Z,16.78
2018-02-10T22:35:32.128Z,22.83
2018-02-10T22:38:00.438Z,23.42
2018-02-10T22:40:28.748Z,12.28
2018-02-10T22:42:57.037Z,10.82
2018-02-10T22:45:25.343Z,13.97
2018-02-10T22:47:53.648Z,12.47
2018-02-10T22:50:21.952Z,10.43
2018-02-10T22:52:50.244Z,21.07
2018-02-10T22:55:18.551Z,13.22
2018-02-10T22:57:46.836Z,13.57
2018-02-10T23:00:15.144Z,10.88
2018-02-10T23:02:43.427Z,21.45
2018-02-10T23:05:11.734Z,12.95
2018-02-10T23:07:40.023Z,11.80
2018-02-10T23:10:08.328Z,12.63
2018-02-10T23:12:35.847Z,16.38
2018-02-10T23:15:04.153Z,9.65
2018-02-10T23:17:32.435Z,16.78
2018-02-10T23:20:00.740Z,12.62
2018-02-10T23:22:29.032Z,16.03
2018-02-10T23:24:57.339Z,21.62
2018-02-10T23:27:25.626Z,9.30
2018-02-10T23:29:53.927Z,16.92
2018-02-10T23:32:22.208Z,10.48
2018-02-10T23:34:50.520Z,12.57
2018-02-10T23:37:18.803Z,13.02
2018-02-10T23:39:47.112Z,9.58
2018-02-10T23:42:15.392Z,12.57
2018-02-10T23:44:43.699Z,12.72
2018-02-10T23:47:11.212Z,10.15
2018-02-10T23:49:39.528Z,12.57
2018-02-10T23:52:07.815Z,10.20
2018-02-10T23:54:36.119Z,15.87
2018-02-10T23:57:04.394Z,9.17
2018-02-10T23:59:32.699Z,11.12
